Perkinston, Mississippi
Current Conditions -  °F | °C
As of 11:53 AM on Friday 24 Oct 2014 (Local Time) from KGPT Reporting Station
Few Clouds Few Clouds  
Wind Chill: 72°   Ceiling: Unl
Heat Index: 72°   Visibility: 10mi
Dew Point: 46°   Wind: 7mph
Humidity: 40%   Direction: 10°N
Pressure: 30.09"   Gusts: NA
Location:  30.78°N, 89.14°W
Report Text: KGPT 241653Z 01006KT 10SM FEW040 22/08 A3009 RMK AO2 SLP187 T02220078
Loading
Personal Weather Stations






























Interactive Weather Map
Tropical Storm Tracking
New forecast layout! Learn more

10-Day Weather Forecast

Advertisements
Track Severe Weather on mobile